Time;durP1;ratioP1;P1;durP2;ratioP2;P2;SDS_P1;SDS_P2;PMS_P1;PMS_P2;Temp;Humidity;BMP_temperature;BMP_pressure;BME280_temperature;BME280_humidity;BME280_pressure;Samples;Min_cycle;Max_cycle;Signal;HPM_P1;HPM_P2
2022/07/16 00:03:45;;;;;;;4.32;1.80;;;;;;;17.05;nan;102044.47;5053404;28;20519;-68
2022/07/16 00:06:11;;;;;;;2.47;1.80;;;;;;;17.01;nan;102047.34;5065644;28;20033;-62
2022/07/16 00:08:36;;;;;;;2.45;1.42;;;;;;;16.88;nan;102039.84;5057517;28;20040;-66
2022/07/16 00:11:01;;;;;;;3.08;1.92;;;;;;;16.85;nan;102039.09;5057644;28;20029;-64
2022/07/16 00:13:27;;;;;;;2.95;1.60;;;;;;;16.49;nan;101976.72;5047868;28;20033;-65
2022/07/16 00:15:55;;;;;;;3.83;2.00;;;;;;;16.79;nan;102028.69;5052984;28;20044;-64
2022/07/16 00:21:05;;;;;;;2.63;1.60;;;;;;;16.51;nan;101993.44;5061365;28;20187;-64
2022/07/16 00:23:30;;;;;;;2.78;1.90;;;;;;;16.43;nan;101968.97;5055523;28;20104;-64
2022/07/16 00:25:55;;;;;;;2.78;1.80;;;;;;;16.68;nan;102013.19;5067117;28;20037;-66
2022/07/16 00:28:21;;;;;;;2.72;1.77;;;;;;;16.76;nan;102031.47;5055047;28;20040;-66
2022/07/16 00:30:46;;;;;;;2.85;1.88;;;;;;;16.45;nan;101977.75;5061644;28;20041;-64
2022/07/16 00:33:11;;;;;;;2.40;1.52;;;;;;;16.65;nan;102010.63;5062089;28;20124;-64
2022/07/16 00:35:37;;;;;;;3.03;1.85;;;;;;;16.69;nan;102025.56;5053282;28;20076;-66
2022/07/16 00:38:02;;;;;;;2.90;1.45;;;;;;;16.38;nan;101974.44;5067029;28;20083;-66
2022/07/16 00:40:27;;;;;;;1.98;1.80;;;;;;;16.66;nan;102014.16;5056093;28;20060;-65
2022/07/16 00:42:53;;;;;;;3.22;2.20;;;;;;;16.33;nan;101955.16;5060567;28;20048;-67
2022/07/16 00:45:18;;;;;;;4.05;1.92;;;;;;;16.50;nan;101968.66;5062780;28;20115;-63
2022/07/16 00:47:43;;;;;;;6.45;2.22;;;;;;;16.84;nan;102026.75;5053964;28;20087;-64
2022/07/16 00:50:09;;;;;;;2.55;1.67;;;;;;;16.54;nan;101966.78;5055915;28;20041;-64
2022/07/16 00:52:35;;;;;;;2.50;2.30;;;;;;;16.91;nan;102027.34;5063286;28;20032;-65
2022/07/16 00:55:01;;;;;;;4.72;2.08;;;;;;;16.91;nan;102030.88;5061593;28;20098;-65
2022/07/16 00:57:27;;;;;;;3.50;1.88;;;;;;;16.91;nan;102017.56;5055931;28;20032;-66
2022/07/16 00:59:52;;;;;;;3.38;2.58;;;;;;;16.90;nan;102018.50;5066951;28;20079;-63
2022/07/16 01:02:17;;;;;;;2.92;1.80;;;;;;;16.72;nan;101964.25;5053885;28;20062;-65
2022/07/16 01:04:43;;;;;;;4.40;2.20;;;;;;;17.00;nan;102013.69;5061796;28;20037;-66
2022/07/16 01:07:08;;;;;;;2.17;1.80;;;;;;;16.77;nan;101966.75;5061110;28;20079;-63
2022/07/16 01:09:34;;;;;;;3.08;1.77;;;;;;;17.04;nan;102002.88;5033600;28;20488;-64
2022/07/16 01:11:59;;;;;;;3.85;2.00;;;;;;;17.26;nan;102037.44;5048339;28;20043;-65
2022/07/16 01:14:25;;;;;;;1.92;1.70;;;;;;;17.29;nan;102021.34;5056416;28;20436;-65
2022/07/16 01:16:51;;;;;;;3.60;2.40;;;;;;;17.10;nan;101989.31;5060482;28;20116;-65
2022/07/16 01:19:16;;;;;;;2.55;1.92;;;;;;;17.40;nan;102029.72;5062799;28;20035;-65
2022/07/16 01:21:43;;;;;;;4.20;2.22;;;;;;;17.44;nan;102026.03;5053544;28;20037;-64
2022/07/16 01:24:08;;;;;;;5.95;2.30;;;;;;;17.21;nan;101979.09;5070231;28;20029;-64
2022/07/16 01:26:33;;;;;;;3.65;2.83;;;;;;;17.49;nan;102018.69;5061135;28;20025;-65
2022/07/16 01:28:59;;;;;;;4.63;2.65;;;;;;;17.47;nan;102025.03;5061665;28;20399;-65
2022/07/16 01:31:24;;;;;;;4.13;2.65;;;;;;;17.43;nan;102019.84;5066674;28;20025;-64
2022/07/16 01:34:24;;;;;;;6.60;3.13;;;;;;;17.41;nan;102018.16;5056830;28;20032;-63
2022/07/16 01:36:35;;;;;;;6.18;3.03;;;;;;;17.36;nan;102023.69;5065805;28;20116;-64
2022/07/16 01:39:00;;;;;;;4.28;3.03;;;;;;;17.11;nan;101982.19;5064327;28;20132;-64
2022/07/16 01:41:26;;;;;;;3.67;2.72;;;;;;;17.26;nan;102009.03;5058875;28;20458;-65
2022/07/16 01:43:51;;;;;;;4.85;2.70;;;;;;;17.30;nan;102020.41;5069914;28;20029;-65
2022/07/16 01:46:16;;;;;;;8.32;2.80;;;;;;;17.22;nan;102028.69;5058077;28;20062;-64
2022/07/16 01:48:42;;;;;;;6.28;3.10;;;;;;;17.10;nan;101996.44;5059991;28;20488;-65
2022/07/16 01:51:07;;;;;;;5.32;2.85;;;;;;;17.21;nan;102028.78;5045749;28;20120;-65
2022/07/16 01:53:32;;;;;;;4.10;2.70;;;;;;;17.18;nan;102024.44;5067523;28;20033;-62
2022/07/16 01:55:59;;;;;;;8.75;3.47;;;;;;;17.12;nan;102021.16;5056762;28;20475;-63
2022/07/16 01:58:24;;;;;;;6.60;3.00;;;;;;;17.11;nan;102030.94;5065897;28;20495;-64
2022/07/16 02:00:50;;;;;;;7.70;2.88;;;;;;;17.08;nan;102027.53;5044934;28;20025;-64
2022/07/16 02:03:15;;;;;;;6.90;3.30;;;;;;;16.78;nan;101993.25;5060000;28;20032;-64
2022/07/16 02:05:41;;;;;;;7.10;3.30;;;;;;;16.85;nan;102013.38;5069551;28;20037;-65
2022/07/16 02:08:07;;;;;;;5.47;2.72;;;;;;;16.86;nan;102022.22;5056341;28;20036;-64
2022/07/16 02:10:33;;;;;;;3.45;2.63;;;;;;;16.57;nan;101991.47;5064752;28;20391;-64
2022/07/16 02:12:58;;;;;;;6.93;2.85;;;;;;;16.70;nan;102027.25;5063644;28;20119;-65
2022/07/16 02:15:24;;;;;;;3.03;2.00;;;;;;;16.66;nan;102033.66;5058773;28;20476;-64
2022/07/16 02:17:49;;;;;;;3.13;1.95;;;;;;;16.22;nan;101963.56;5069345;28;20123;-64
2022/07/16 02:20:14;;;;;;;3.40;1.80;;;;;;;16.55;nan;102038.47;5056179;28;20033;-66
2022/07/16 02:22:40;;;;;;;4.47;1.83;;;;;;;16.15;nan;101969.13;5063408;28;20040;-64
2022/07/16 02:25:07;;;;;;;2.00;1.60;;;;;;;16.43;nan;102038.06;5064516;28;20089;-62
2022/07/16 02:27:32;;;;;;;3.65;1.80;;;;;;;16.37;nan;102038.28;5057342;28;20076;-63
2022/07/16 02:29:59;;;;;;;2.78;1.27;;;;;;;16.23;nan;102013.09;5068228;28;20064;-65
2022/07/16 02:32:24;;;;;;;2.55;1.42;;;;;;;15.98;nan;101985.72;5058682;28;20043;-65
2022/07/16 02:34:50;;;;;;;2.97;1.48;;;;;;;16.21;nan;102030.00;5060712;28;20036;-65
2022/07/16 02:37:15;;;;;;;4.43;1.75;;;;;;;16.16;nan;102030.19;5065681;28;20584;-63
2022/07/16 02:39:40;;;;;;;3.53;1.85;;;;;;;15.87;nan;101993.22;5055679;28;20053;-64
2022/07/16 02:42:06;;;;;;;3.67;1.30;;;;;;;15.83;nan;101994.22;5039219;28;20040;-68
2022/07/16 02:44:31;;;;;;;2.28;1.20;;;;;;;16.10;nan;102049.00;5065603;28;20044;-62
2022/07/16 02:46:57;;;;;;;6.38;1.70;;;;;;;16.08;nan;102052.66;5061691;28;20094;-64
2022/07/16 02:49:22;;;;;;;1.95;1.40;;;;;;;16.06;nan;102051.81;5047541;28;20495;-64
2022/07/16 02:51:47;;;;;;;7.95;1.58;;;;;;;15.66;nan;101991.31;5030993;28;20447;-64
2022/07/16 02:54:12;;;;;;;2.22;1.20;;;;;;;15.65;nan;101989.56;5055041;28;20430;-65
2022/07/16 02:56:38;;;;;;;4.10;1.90;;;;;;;15.97;nan;102070.72;5056688;28;20025;-62
2022/07/16 02:59:03;;;;;;;7.82;1.83;;;;;;;15.94;nan;102061.09;5054392;28;20090;-64
2022/07/16 03:01:28;;;;;;;2.72;1.55;;;;;;;15.88;nan;102056.00;5055684;28;20037;-62
2022/07/16 03:03:54;;;;;;;5.07;2.00;;;;;;;15.54;nan;102013.84;5068512;28;20426;-65
2022/07/16 03:06:19;;;;;;;3.95;1.70;;;;;;;15.83;nan;102057.06;5056949;28;20036;-63
2022/07/16 03:08:46;;;;;;;3.20;1.50;;;;;;;15.83;nan;102067.69;5056322;28;20029;-67
2022/07/16 03:11:11;;;;;;;2.95;1.45;;;;;;;15.80;nan;102059.84;5044269;28;20071;-65
2022/07/16 03:13:36;;;;;;;3.97;1.90;;;;;;;15.76;nan;102064.41;5066268;28;20124;-65
2022/07/16 03:16:02;;;;;;;4.80;1.90;;;;;;;15.74;nan;102066.22;5055353;28;20039;-63
2022/07/16 03:18:27;;;;;;;4.85;2.25;;;;;;;15.64;nan;102054.19;5062457;28;20529;-63
2022/07/16 03:20:52;;;;;;;4.55;1.88;;;;;;;15.55;nan;102044.78;5059103;28;20036;-63
2022/07/16 03:23:18;;;;;;;6.75;2.35;;;;;;;15.64;nan;102064.81;5055130;28;20037;-66
2022/07/16 03:25:43;;;;;;;3.88;1.95;;;;;;;15.26;nan;102001.53;5065213;28;20037;-65
2022/07/16 03:28:09;;;;;;;4.03;2.05;;;;;;;15.59;nan;102067.63;5054145;28;20037;-64
2022/07/16 03:30:35;;;;;;;3.40;1.80;;;;;;;15.52;nan;102059.91;5063040;28;20510;-64
2022/07/16 03:33:00;;;;;;;5.63;2.05;;;;;;;15.26;nan;102031.56;5061417;28;20036;-63
2022/07/16 03:35:25;;;;;;;4.47;1.90;;;;;;;15.50;nan;102073.22;5054323;28;20037;-63
2022/07/16 03:40:35;;;;;;;3.60;1.65;;;;;;;15.25;nan;102032.47;5058759;28;20105;-64
2022/07/16 03:43:00;;;;;;;4.97;2.38;;;;;;;15.64;nan;102086.91;5060496;28;20041;-64
2022/07/16 03:45:25;;;;;;;7.13;2.45;;;;;;;15.75;nan;102081.25;5064185;28;20170;-64
2022/07/16 03:47:51;;;;;;;3.47;2.25;;;;;;;15.79;nan;102072.22;5054743;28;20044;-62
2022/07/16 03:50:16;;;;;;;2.33;1.80;;;;;;;15.92;nan;102097.47;5066354;28;20124;-63
2022/07/16 03:52:42;;;;;;;4.40;2.00;;;;;;;15.55;nan;102031.50;5059745;28;20032;-65
2022/07/16 03:55:08;;;;;;;5.80;2.13;;;;;;;15.57;nan;102023.47;5057908;28;20107;-64
2022/07/16 03:57:33;;;;;;;4.13;1.85;;;;;;;15.86;nan;102088.81;5065322;28;20032;-65
2022/07/16 03:59:58;;;;;;;4.28;2.05;;;;;;;15.80;nan;102097.00;5054748;28;20033;-67
2022/07/16 04:02:23;;;;;;;3.35;2.10;;;;;;;15.57;nan;102058.84;5063668;28;20033;-63
2022/07/16 04:04:49;;;;;;;3.85;2.00;;;;;;;15.63;nan;102077.22;5060301;28;20063;-64
2022/07/16 04:07:14;;;;;;;4.07;2.00;;;;;;;15.68;nan;102107.13;5057595;28;20033;-63
2022/07/16 04:09:40;;;;;;;3.88;2.28;;;;;;;15.56;nan;102088.94;5066007;28;20025;-65
2022/07/16 04:12:05;;;;;;;1.73;1.50;;;;;;;15.62;nan;102099.34;5052036;28;20072;-65
2022/07/16 04:14:30;;;;;;;4.63;1.80;;;;;;;15.59;nan;102110.06;5040058;28;20054;-66
2022/07/16 04:16:55;;;;;;;5.03;2.00;;;;;;;15.23;nan;102050.25;5060638;28;20044;-64
2022/07/16 04:19:21;;;;;;;3.35;1.83;;;;;;;15.32;nan;102072.94;5063523;28;20422;-65
2022/07/16 04:21:46;;;;;;;4.53;1.55;;;;;;;15.60;nan;102118.91;5054184;28;20040;-62
2022/07/16 04:24:11;;;;;;;5.53;2.00;;;;;;;15.55;nan;102120.84;5066675;28;20032;-64
2022/07/16 04:26:37;;;;;;;3.90;1.70;;;;;;;15.58;nan;102118.09;5040725;28;20040;-63
2022/07/16 04:29:02;;;;;;;4.05;1.63;;;;;;;15.50;nan;102120.16;5059772;28;20033;-65
2022/07/16 04:31:27;;;;;;;4.03;1.58;;;;;;;15.61;nan;102139.25;5065882;28;20166;-65
2022/07/16 04:33:53;;;;;;;5.05;1.40;;;;;;;15.65;nan;102138.19;5054019;28;20170;-63
2022/07/16 04:36:18;;;;;;;4.75;1.50;;;;;;;15.75;nan;102137.00;5065359;28;20503;-63
2022/07/16 04:38:44;;;;;;;3.92;1.40;;;;;;;15.83;nan;102144.69;5059631;28;20045;-67
2022/07/16 04:41:09;;;;;;;5.40;1.42;;;;;;;15.85;nan;102159.66;5057157;28;20045;-63
2022/07/16 04:43:35;;;;;;;3.33;1.38;;;;;;;15.84;nan;102147.31;5065229;28;20039;-64
2022/07/16 04:46:00;;;;;;;4.47;1.60;;;;;;;15.69;nan;102126.56;5053070;28;20112;-64
2022/07/16 04:48:25;;;;;;;3.53;1.52;;;;;;;15.50;nan;102106.88;5064680;28;20167;-64
2022/07/16 04:50:51;;;;;;;7.07;1.40;;;;;;;15.78;nan;102155.47;5060168;28;20033;-64
2022/07/16 04:53:16;;;;;;;5.82;1.50;;;;;;;15.41;nan;102107.13;5057428;28;20079;-65
2022/07/16 04:55:41;;;;;;;2.47;1.77;;;;;;;15.69;nan;102150.47;5067322;28;20051;-65
2022/07/16 04:58:07;;;;;;;5.10;1.58;;;;;;;15.39;nan;102106.31;5038477;28;20032;-65
2022/07/16 05:00:32;;;;;;;4.45;1.38;;;;;;;15.64;nan;102166.53;5066016;28;20572;-64
2022/07/16 05:02:58;;;;;;;1.35;1.15;;;;;;;15.39;nan;102119.56;5065017;28;20047;-64
2022/07/16 05:05:30;;;;;;;3.58;1.55;;;;;;;15.70;nan;102179.59;5060127;28;20037;-63
2022/07/16 05:07:55;;;;;;;6.57;1.77;;;;;;;15.71;nan;102161.88;5070587;28;20028;-64
2022/07/16 05:10:21;;;;;;;4.35;1.50;;;;;;;15.78;nan;102176.72;5059756;28;20055;-64
2022/07/16 05:12:47;;;;;;;4.03;1.50;;;;;;;15.79;nan;102175.78;5057100;28;20078;-64
2022/07/16 05:15:13;;;;;;;4.50;1.58;;;;;;;15.61;nan;102136.59;5059713;28;20033;-64
2022/07/16 05:17:38;;;;;;;5.45;1.60;;;;;;;15.75;nan;102159.09;5056806;28;20044;-66
2022/07/16 05:20:04;;;;;;;4.38;1.50;;;;;;;15.96;nan;102181.44;5070531;28;20392;-64
2022/07/16 05:22:31;;;;;;;2.40;1.58;;;;;;;16.02;nan;102189.19;5059213;28;20052;-65
2022/07/16 05:24:56;;;;;;;5.68;1.73;;;;;;;16.07;nan;102197.00;5064040;28;20044;-62
2022/07/16 05:27:21;;;;;;;3.70;2.35;;;;;;;16.10;nan;102188.91;5067372;28;20090;-62
2022/07/16 05:29:47;;;;;;;4.28;1.40;;;;;;;16.21;nan;102194.72;5057230;28;20387;-64
2022/07/16 05:32:12;;;;;;;3.42;1.60;;;;;;;16.28;nan;102196.25;5069630;28;20530;-66
2022/07/16 05:34:37;;;;;;;3.95;1.70;;;;;;;16.04;nan;102147.50;5061538;28;20041;-63
2022/07/16 05:37:03;;;;;;;3.28;1.50;;;;;;;16.42;nan;102209.94;5061921;28;20136;-64
2022/07/16 05:39:29;;;;;;;4.78;1.60;;;;;;;16.20;nan;102159.31;5068359;28;20083;-64
2022/07/16 05:41:55;;;;;;;3.08;1.23;;;;;;;16.52;nan;102205.19;5055461;28;20037;-65
2022/07/16 05:44:20;;;;;;;4.78;1.42;;;;;;;16.66;nan;102221.53;5067809;28;20396;-63
2022/07/16 05:46:45;;;;;;;5.65;1.90;;;;;;;16.75;nan;102223.88;5046208;28;20033;-65
2022/07/16 05:49:11;;;;;;;2.90;1.38;;;;;;;16.77;nan;102214.91;5056771;28;20048;-63
2022/07/16 05:51:36;;;;;;;3.33;1.58;;;;;;;16.96;nan;102227.53;5056143;28;20033;-63
2022/07/16 05:54:01;;;;;;;5.60;2.13;;;;;;;17.04;nan;102238.75;5069418;28;20079;-62
2022/07/16 05:56:27;;;;;;;2.22;1.30;;;;;;;17.18;nan;102226.66;5059671;28;20471;-63
2022/07/16 05:58:52;;;;;;;3.58;1.50;;;;;;;16.95;nan;102191.22;5062239;28;20044;-65
2022/07/16 06:01:17;;;;;;;5.15;1.40;;;;;;;17.34;nan;102233.13;5065086;28;20039;-64
2022/07/16 06:03:43;;;;;;;3.30;1.05;;;;;;;17.44;nan;102241.63;5056712;28;20075;-64
2022/07/16 06:06:08;;;;;;;3.70;1.27;;;;;;;17.40;nan;102230.22;5069039;28;20102;-62
2022/07/16 06:08:34;;;;;;;5.60;1.45;;;;;;;17.28;nan;102220.06;5059918;28;20040;-65
2022/07/16 06:10:59;;;;;;;4.35;1.73;;;;;;;17.53;nan;102261.72;5062378;28;20025;-63
2022/07/16 06:13:25;;;;;;;5.32;1.58;;;;;;;17.59;nan;102264.16;5053671;28;20503;-65
2022/07/16 06:15:50;;;;;;;4.45;1.42;;;;;;;17.52;nan;102259.97;5069036;28;20037;-65
2022/07/16 06:18:15;;;;;;;3.70;1.67;;;;;;;17.41;nan;102225.78;5057115;28;20115;-65
2022/07/16 06:20:41;;;;;;;3.45;1.58;;;;;;;17.59;nan;102283.69;5062916;28;20033;-64
2022/07/16 06:23:06;;;;;;;4.47;1.40;;;;;;;17.55;nan;102282.06;5064138;28;20076;-63
2022/07/16 06:25:32;;;;;;;2.55;1.02;;;;;;;17.47;nan;102291.22;5057605;28;20033;-64
2022/07/16 06:27:58;;;;;;;4.43;1.20;;;;;;;17.17;nan;102240.88;5069082;28;20093;-65
2022/07/16 06:30:23;;;;;;;2.75;1.48;;;;;;;17.42;nan;102296.75;5058173;28;20119;-64
2022/07/16 06:32:49;;;;;;;2.95;1.30;;;;;;;17.51;nan;102316.81;5063250;28;20037;-65
2022/07/16 06:35:14;;;;;;;3.08;1.40;;;;;;;17.22;nan;102243.41;5065519;28;20032;-66
2022/07/16 06:37:40;;;;;;;3.80;1.60;;;;;;;17.54;nan;102304.28;5055535;28;20053;-63
2022/07/16 06:40:06;;;;;;;3.83;1.10;;;;;;;17.53;nan;102315.84;5069083;28;20033;-65
2022/07/16 06:42:32;;;;;;;4.00;1.00;;;;;;;17.29;nan;102242.22;5058973;28;20086;-67
2022/07/16 06:44:58;;;;;;;3.38;1.05;;;;;;;17.61;nan;102310.22;5061689;28;20060;-65
2022/07/16 06:47:23;;;;;;;1.77;0.80;;;;;;;17.85;nan;102328.81;5064791;28;20315;-65
2022/07/16 06:49:48;;;;;;;4.60;1.13;;;;;;;18.08;nan;102327.03;5055385;28;20033;-63
2022/07/16 06:52:14;;;;;;;3.42;1.25;;;;;;;18.25;nan;102316.53;5067366;28;20108;-64
2022/07/16 06:54:39;;;;;;;3.88;1.00;;;;;;;18.40;nan;102314.13;5060102;28;20075;-64
2022/07/16 06:57:04;;;;;;;6.53;1.40;;;;;;;18.18;nan;102291.09;5059381;28;20036;-64
2022/07/16 06:59:30;;;;;;;1.67;1.00;;;;;;;18.44;nan;102342.41;5066732;28;20037;-65
2022/07/16 07:01:55;;;;;;;5.00;1.27;;;;;;;18.44;nan;102346.88;5054943;28;20033;-66
2022/07/16 07:04:20;;;;;;;2.20;1.10;;;;;;;18.32;nan;102352.69;5066276;28;20044;-65
2022/07/16 07:06:46;;;;;;;3.03;0.98;;;;;;;18.14;nan;102311.66;5059260;28;20059;-65
2022/07/16 07:09:11;;;;;;;2.72;1.08;;;;;;;18.30;nan;102358.06;5059617;28;20494;-62
2022/07/16 07:11:37;;;;;;;4.22;1.17;;;;;;;18.21;nan;102346.94;5067880;28;20154;-66
2022/07/16 07:14:03;;;;;;;4.03;0.70;;;;;;;18.07;nan;102339.47;5038215;28;20025;-64
2022/07/16 07:16:28;;;;;;;3.45;1.00;;;;;;;18.27;nan;102368.03;5065194;28;20033;-63
2022/07/16 07:18:53;;;;;;;2.63;1.00;;;;;;;18.06;nan;102320.91;5061404;28;20472;-66
2022/07/16 07:21:19;;;;;;;3.15;0.95;;;;;;;18.40;nan;102369.25;5057418;28;20037;-66
2022/07/16 07:23:44;;;;;;;3.88;0.95;;;;;;;18.49;nan;102376.91;5066893;28;20044;-65
2022/07/16 07:26:09;;;;;;;4.15;1.00;;;;;;;18.68;nan;102369.84;5055646;28;20040;-64
2022/07/16 07:28:35;;;;;;;3.03;1.00;;;;;;;18.82;nan;102377.31;5064173;28;20484;-64
2022/07/16 07:31:00;;;;;;;2.60;0.90;;;;;;;18.66;nan;102325.53;5062728;28;20039;-62
2022/07/16 07:33:25;;;;;;;3.50;1.27;;;;;;;18.68;nan;102343.19;5057273;28;20138;-64
2022/07/16 07:35:51;;;;;;;5.25;0.93;;;;;;;19.13;nan;102388.38;5067551;28;20066;-63
2022/07/16 07:38:17;;;;;;;4.70;1.15;;;;;;;19.31;nan;102398.28;5055848;28;20056;-63
2022/07/16 07:40:42;;;;;;;1.88;0.88;;;;;;;19.33;nan;102332.31;5041357;28;20033;-64
2022/07/16 07:43:07;;;;;;;2.10;0.95;;;;;;;19.94;nan;102372.25;5036985;28;20044;-62
2022/07/16 07:45:33;;;;;;;2.00;0.82;;;;;;;20.23;nan;102363.69;5054398;28;20037;-63
2022/07/16 07:47:59;;;;;;;1.95;0.70;;;;;;;20.65;nan;102398.22;5066702;28;20484;-63
2022/07/16 07:50:25;;;;;;;3.72;1.00;;;;;;;20.76;nan;102398.53;5056448;28;20483;-63
2022/07/16 07:52:50;;;;;;;5.07;1.35;;;;;;;21.38;nan;102398.03;5060183;28;20029;-62
2022/07/16 07:55:16;;;;;;;6.95;1.10;;;;;;;21.74;nan;102381.78;5062864;28;20063;-63
2022/07/16 07:57:42;;;;;;;4.47;1.05;;;;;;;21.09;nan;102272.84;5054600;28;20518;-65
2022/07/16 08:00:09;;;;;;;1.63;0.80;;;;;;;21.65;nan;102417.13;5038044;28;20029;-66
2022/07/16 08:02:34;;;;;;;2.67;0.80;;;;;;;21.64;nan;102368.00;5063429;28;20029;-66
2022/07/16 08:04:59;;;;;;;4.10;1.15;;;;;;;22.27;nan;102411.03;5061848;28;20036;-63
2022/07/16 08:07:25;;;;;;;1.13;0.88;;;;;;;22.33;nan;102432.09;5056151;28;20041;-66
2022/07/16 08:09:50;;;;;;;2.85;0.93;;;;;;;22.58;nan;102380.59;5066812;28;20078;-63
2022/07/16 08:12:15;;;;;;;2.15;0.80;;;;;;;22.52;nan;102405.97;5051468;28;20072;-65
2022/07/16 08:14:41;;;;;;;2.67;0.90;;;;;;;22.64;nan;102455.41;5057633;28;20056;-64
2022/07/16 08:17:06;;;;;;;3.90;1.10;;;;;;;22.11;nan;102447.69;5058659;28;20116;-66
2022/07/16 08:19:32;;;;;;;4.80;1.15;;;;;;;22.21;nan;102449.75;5066344;28;20067;-65
2022/07/16 08:21:59;;;;;;;6.05;1.00;;;;;;;21.82;nan;102447.44;5052720;28;20407;-66
2022/07/16 08:27:23;;;;;;;2.88;0.80;;;;;;;21.76;nan;102461.16;5067808;28;20067;-62
2022/07/16 08:29:48;;;;;;;2.67;0.57;;;;;;;21.51;nan;102400.94;5056817;28;20032;-65
2022/07/16 08:32:13;;;;;;;3.33;0.90;;;;;;;21.88;nan;102457.00;5064206;28;20648;-62
2022/07/16 08:34:39;;;;;;;2.28;1.02;;;;;;;21.78;nan;102434.25;5061380;28;20514;-63
2022/07/16 08:37:10;;;;;;;2.80;0.90;;;;;;;21.81;nan;102420.69;5061855;28;20044;-65
2022/07/16 08:39:44;;;;;;;;;;;;;;;22.36;nan;102478.41;5069011;28;20132;-65
2022/07/16 08:42:11;;;;;;;2.40;0.90;;;;;;;22.87;nan;102488.06;5042094;28;20498;-66
2022/07/16 08:44:38;;;;;;;2.25;0.57;;;;;;;22.73;nan;102455.78;5066770;28;20453;-64
2022/07/16 08:47:03;;;;;;;2.65;0.70;;;;;;;22.65;nan;102474.13;5066011;28;20033;-65
2022/07/16 08:49:29;;;;;;;3.28;1.05;;;;;;;22.30;nan;102435.84;5059778;28;20471;-64
2022/07/16 08:51:59;;;;;;;2.25;1.00;;;;;;;21.82;nan;102434.03;5067882;28;20421;-64
2022/07/16 08:54:25;;;;;;;1.67;0.97;;;;;;;22.12;nan;102476.25;5068239;28;20071;-66
2022/07/16 08:56:50;;;;;;;2.28;0.80;;;;;;;22.70;nan;102452.41;5063944;28;20060;-65
2022/07/16 08:59:16;;;;;;;1.70;0.90;;;;;;;22.62;nan;102441.22;5043141;28;20083;-66
2022/07/16 09:01:41;;;;;;;3.97;0.90;;;;;;;23.40;nan;102481.38;5053170;28;20094;-65
2022/07/16 09:04:07;;;;;;;2.40;0.75;;;;;;;24.04;nan;102497.09;5041484;28;20032;-63
2022/07/16 09:06:32;;;;;;;3.35;1.00;;;;;;;24.20;nan;102510.50;5067345;28;20037;-63
2022/07/16 09:08:59;;;;;;;1.35;0.63;;;;;;;24.71;nan;102508.97;5063274;28;20163;-63
2022/07/16 09:11:27;;;;;;;1.70;0.70;;;;;;;24.44;nan;102506.22;5060063;28;20425;-65
2022/07/16 09:14:05;;;;;;;3.45;1.17;;;;;;;24.47;nan;102466.53;5056218;28;20029;-65
2022/07/16 09:16:39;;;;;;;2.35;0.85;;;;;;;24.97;nan;102474.00;5066991;28;20484;-65
2022/07/16 09:19:19;;;;;;;2.95;0.90;;;;;;;25.02;nan;102533.81;5065201;28;20024;-62
2022/07/16 09:22:03;;;;;;;2.75;0.85;;;;;;;23.75;nan;102520.44;5057178;28;20025;-63
2022/07/16 09:24:42;;;;;;;2.65;1.10;;;;;;;23.90;nan;102519.50;5066049;28;20140;-65
2022/07/16 09:27:14;;;;;;;2.83;1.30;;;;;;;24.06;nan;102520.25;5065429;28;20365;-67
2022/07/16 09:29:47;;;;;;;0.93;0.80;;;;;;;24.26;nan;102521.72;5057135;28;20400;-66
2022/07/16 09:32:13;;;;;;;3.88;0.80;;;;;;;25.03;nan;102538.25;5041827;28;20031;-62
2022/07/16 09:34:38;;;;;;;1.98;0.90;;;;;;;24.85;nan;102538.59;5064215;28;20237;-65
2022/07/16 09:37:06;;;;;;;3.83;0.95;;;;;;;25.20;nan;102550.59;5064875;28;20052;-64
2022/07/16 09:39:33;;;;;;;2.47;1.10;;;;;;;25.43;nan;102508.59;5057671;28;20155;-64
2022/07/16 09:41:58;;;;;;;4.88;0.98;;;;;;;25.14;nan;102515.97;5061821;28;20033;-66
2022/07/16 09:44:32;;;;;;;2.88;0.70;;;;;;;24.96;nan;102519.88;5065515;28;20036;-64
2022/07/16 09:46:58;;;;;;;5.32;1.17;;;;;;;24.96;nan;102554.91;5063797;28;20028;-63
2022/07/16 09:49:24;;;;;;;5.38;0.88;;;;;;;24.51;nan;102535.38;5057305;28;20396;-64
2022/07/16 09:51:49;;;;;;;3.13;0.90;;;;;;;24.90;nan;102531.06;5070593;28;20049;-64
2022/07/16 09:54:29;;;;;;;4.55;1.00;;;;;;;25.51;nan;102562.91;5057744;28;20033;-62
2022/07/16 09:57:08;;;;;;;2.58;1.15;;;;;;;25.35;nan;102572.94;5061729;28;20416;-65
2022/07/16 09:59:34;;;;;;;4.38;1.35;;;;;;;25.00;nan;102561.81;5048136;28;20029;-65
2022/07/16 10:02:02;;;;;;;1.65;0.75;;;;;;;23.96;nan;102559.44;5067614;28;20032;-64
2022/07/16 10:04:28;;;;;;;3.08;0.93;;;;;;;24.38;nan;102574.78;5058700;28;20032;-67
2022/07/16 10:06:53;;;;;;;5.25;1.35;;;;;;;24.37;nan;102564.97;5061292;28;20033;-65
2022/07/16 10:09:19;;;;;;;1.77;0.90;;;;;;;25.08;nan;102530.72;5063914;28;20040;-63
2022/07/16 10:11:44;;;;;;;5.18;1.17;;;;;;;25.13;nan;102533.97;5056083;28;20110;-66
2022/07/16 10:14:09;;;;;;;2.00;1.00;;;;;;;25.56;nan;102579.63;5041369;28;20038;-65
2022/07/16 10:16:40;;;;;;;5.07;1.38;;;;;;;24.86;nan;102526.84;5065225;28;20061;-67
2022/07/16 10:19:06;;;;;;;2.33;0.77;;;;;;;25.61;nan;102575.66;5062628;28;20036;-69
2022/07/16 10:21:32;;;;;;;2.15;0.75;;;;;;;25.65;nan;102571.78;5057373;28;20033;-63
2022/07/16 10:24:05;;;;;;;5.07;1.05;;;;;;;25.33;nan;102569.50;5069153;28;20056;-64
2022/07/16 10:26:32;;;;;;;2.33;0.88;;;;;;;25.41;nan;102540.19;5059361;28;20082;-67
2022/07/16 10:28:58;;;;;;;2.10;1.00;;;;;;;25.34;nan;102526.25;5060565;28;20035;-66
2022/07/16 10:31:39;;;;;;;4.93;0.75;;;;;;;25.70;nan;102580.44;5065151;28;20055;-65
2022/07/16 10:34:14;;;;;;;3.55;1.00;;;;;;;25.79;nan;102581.63;5055345;28;20662;-64
2022/07/16 10:36:47;;;;;;;4.22;0.98;;;;;;;25.83;nan;102584.97;5064181;28;20048;-67
2022/07/16 10:39:16;;;;;;;3.30;1.48;;;;;;;24.52;nan;102544.28;5057736;28;20530;-65
2022/07/16 10:41:48;;;;;;;4.32;1.20;;;;;;;25.88;nan;102590.91;5055559;28;20032;-65
2022/07/16 10:44:14;;;;;;;4.07;1.25;;;;;;;24.99;nan;102589.72;5039566;28;20119;-61
2022/07/16 10:46:52;;;;;;;1.45;0.70;;;;;;;25.55;nan;102592.25;5064105;28;20079;-65
2022/07/16 10:49:18;;;;;;;1.83;0.70;;;;;;;25.68;nan;102605.78;5063908;28;20032;-63
2022/07/16 10:52:18;;;;;;;2.72;1.20;;;;;;;25.14;nan;102604.88;5055336;28;20090;-66
2022/07/16 10:54:49;;;;;;;2.47;0.82;;;;;;;25.06;nan;102602.72;5062868;28;20064;-66
2022/07/16 10:57:16;;;;;;;2.95;0.93;;;;;;;24.98;nan;102580.81;5065036;28;20032;-64
2022/07/16 10:59:46;;;;;;;3.78;0.85;;;;;;;24.86;nan;102595.06;5055349;28;20488;-63
2022/07/16 11:02:12;;;;;;;3.63;1.02;;;;;;;24.91;nan;102559.72;5042384;28;20119;-64
2022/07/16 11:04:40;;;;;;;1.90;0.73;;;;;;;25.40;nan;102573.50;5064404;28;20033;-65
2022/07/16 11:07:14;;;;;;;1.45;0.85;;;;;;;25.95;nan;102616.50;5063394;28;20043;-63
2022/07/16 11:09:43;;;;;;;2.55;0.70;;;;;;;26.04;nan;102569.97;5055414;28;20036;-61
2022/07/16 11:12:11;;;;;;;2.10;0.90;;;;;;;26.20;nan;102603.94;5036172;28;20551;-69
2022/07/16 11:14:37;;;;;;;1.67;0.60;;;;;;;25.59;nan;102574.03;5057897;28;20112;-64
2022/07/16 11:17:03;;;;;;;3.28;0.93;;;;;;;25.50;nan;102617.78;5060864;28;20028;-64
2022/07/16 11:19:29;;;;;;;3.25;1.08;;;;;;;26.16;nan;102613.19;5066090;28;20104;-64
2022/07/16 11:22:01;;;;;;;4.68;1.05;;;;;;;26.45;nan;102613.84;5054680;28;20439;-63
2022/07/16 11:24:28;;;;;;;2.78;0.80;;;;;;;25.16;nan;102614.59;5064245;28;20033;-63
2022/07/16 11:26:54;;;;;;;2.05;0.88;;;;;;;24.74;nan;102592.25;5061135;28;20101;-63
2022/07/16 11:29:20;;;;;;;5.93;0.82;;;;;;;25.89;nan;102608.84;5057916;28;20304;-70
2022/07/16 11:31:46;;;;;;;5.72;1.10;;;;;;;26.29;nan;102605.13;5068068;28;20032;-64
2022/07/16 11:34:12;;;;;;;2.20;0.90;;;;;;;25.81;nan;102597.69;5046411;28;20448;-65
2022/07/16 11:36:42;;;;;;;3.00;0.68;;;;;;;25.53;nan;102598.72;5050007;28;20472;-63
2022/07/16 11:39:15;;;;;;;2.28;0.88;;;;;;;25.05;nan;102597.41;5055091;28;20057;-62
2022/07/16 11:41:46;;;;;;;2.20;0.70;;;;;;;25.80;nan;102626.53;5030923;28;20036;-64
2022/07/16 11:44:32;;;;;;;3.15;0.93;;;;;;;25.67;nan;102580.63;5032798;28;20025;-65
2022/07/16 11:47:02;;;;;;;1.35;0.93;;;;;;;26.70;nan;102621.94;5051373;28;20021;-64
2022/07/16 11:49:30;;;;;;;2.05;1.20;;;;;;;27.05;nan;102621.22;5050523;28;20039;-65